Air Navigation Services of Czech Republic
Airport: LKPD Updated:  22.11.2017 10:08:11  UTC
 METAR LKPD 22.11. 09:00 ...
METAR LKPD 220900Z 25009KT 9999 BKN027 09/06 Q1012 NOSIG =
 TAF LKPD 22.11. 05:00 ...
TAF LKPD 220500Z 2206/2306 26008KT 9999 BKN035      BECMG 2209/2212 CAVOK      BECMG 2215/2217 VRB02KT      BECMG 2220/2222 6000 NSC      PROB40 TEMPO 2302/2306 3000 MIFG BR BKN010=